Time;durP1;ratioP1;P1;durP2;ratioP2;P2;SDS_P1;SDS_P2;PMS_P1;PMS_P2;Temp;Humidity;BMP_temperature;BMP_pressure;BME280_temperature;BME280_humidity;BME280_pressure;Samples;Min_cycle;Max_cycle;Signal;HPM_P1;HPM_P2
2023/09/14 00:02:04;;;;;;;4.00;2.03;;;16.30;99.90;;;;;;5051150;28;20533;-59
2023/09/14 00:04:32;;;;;;;4.40;1.77;;;16.30;99.90;;;;;;5037387;28;20555;-59
2023/09/14 00:06:59;;;;;;;2.10;1.90;;;16.30;99.90;;;;;;5037088;28;20527;-60
2023/09/14 00:09:29;;;;;;;4.07;1.90;;;16.30;99.90;;;;;;5053892;28;20491;-57
2023/09/14 00:11:56;;;;;;;3.03;2.10;;;16.30;99.90;;;;;;5061602;28;20533;-59
2023/09/14 00:14:23;;;;;;;2.80;1.70;;;16.30;99.90;;;;;;5058134;28;20450;-56
2023/09/14 00:16:50;;;;;;;6.30;3.67;;;16.40;99.90;;;;;;5057081;28;20467;-59
2023/09/14 00:19:16;;;;;;;5.33;2.20;;;16.30;99.90;;;;;;5057379;28;20494;-59
2023/09/14 00:21:45;;;;;;;3.00;2.17;;;16.30;99.90;;;;;;5062729;28;20486;-57
2023/09/14 00:24:15;;;;;;;4.30;2.17;;;16.30;99.90;;;;;;5062707;28;20530;-57
2023/09/14 00:26:42;;;;;;;6.13;2.47;;;16.30;99.90;;;;;;5055312;28;20499;-59
2023/09/14 00:29:09;;;;;;;3.23;1.97;;;16.30;99.90;;;;;;5048757;28;21054;-58
2023/09/14 00:31:38;;;;;;;2.97;1.80;;;16.30;99.90;;;;;;5049095;28;20468;-56
2023/09/14 00:34:05;;;;;;;4.70;1.80;;;16.30;99.90;;;;;;5058807;28;20455;-59
2023/09/14 00:36:32;;;;;;;3.00;2.23;;;16.30;99.90;;;;;;5056388;28;20459;-58
2023/09/14 00:39:00;;;;;;;4.03;2.70;;;16.30;99.90;;;;;;5056216;28;20538;-59
2023/09/14 00:41:29;;;;;;;2.80;2.23;;;16.30;99.90;;;;;;5057715;28;20531;-59
2023/09/14 00:43:56;;;;;;;5.17;2.93;;;16.30;99.90;;;;;;5061904;28;20509;-57
2023/09/14 00:46:23;;;;;;;3.83;2.53;;;16.30;99.90;;;;;;5061455;28;20440;-57
2023/09/14 00:48:50;;;;;;;3.53;2.10;;;16.20;99.90;;;;;;5058370;28;20467;-59
2023/09/14 00:51:18;;;;;;;3.23;1.90;;;16.20;99.90;;;;;;5056016;28;20526;-59
2023/09/14 00:53:45;;;;;;;2.90;1.87;;;16.20;99.90;;;;;;5048995;28;20986;-59
2023/09/14 00:56:13;;;;;;;2.40;1.73;;;16.10;99.90;;;;;;5041949;28;20494;-59
2023/09/14 00:58:40;;;;;;;2.57;1.73;;;16.10;99.90;;;;;;5044651;28;20551;-59
2023/09/14 01:01:07;;;;;;;2.93;2.00;;;16.10;99.90;;;;;;5038303;28;20524;-59
2023/09/14 01:03:34;;;;;;;3.17;2.20;;;16.00;99.90;;;;;;5037011;28;20444;-60
2023/09/14 01:06:01;;;;;;;2.80;2.30;;;16.00;99.90;;;;;;5037986;28;20480;-59
2023/09/14 01:08:28;;;;;;;5.53;2.90;;;16.00;99.90;;;;;;5036875;28;20472;-58
2023/09/14 01:10:55;;;;;;;3.30;2.17;;;16.00;99.90;;;;;;5036000;28;20937;-57
2023/09/14 01:13:34;;;;;;;3.83;2.07;;;16.10;99.90;;;;;;5039742;28;20571;-58
2023/09/14 01:16:11;;;;;;;4.40;2.40;;;16.10;99.90;;;;;;5040978;28;20511;-58
2023/09/14 01:18:42;;;;;;;3.13;2.33;;;16.00;99.90;;;;;;5041641;28;20428;-59
2023/09/14 01:21:59;;;;;;;3.23;2.20;;;16.00;99.90;;;;;;5036126;28;20490;-59
2023/09/14 01:24:38;;;;;;;2.97;1.97;;;16.00;99.90;;;;;;5059483;28;20401;-53
2023/09/14 01:27:09;;;;;;;2.80;2.03;;;16.00;99.90;;;;;;5067854;28;20420;-52
2023/09/14 01:29:36;;;;;;;3.50;2.03;;;16.00;99.90;;;;;;5076134;28;20424;-57
2023/09/14 01:32:05;;;;;;;3.50;2.23;;;15.90;99.90;;;;;;5074686;28;20487;-58
2023/09/14 01:34:32;;;;;;;4.23;2.20;;;15.90;99.90;;;;;;5075938;28;20485;-58
2023/09/14 01:37:00;;;;;;;3.63;2.23;;;15.90;99.90;;;;;;5075350;28;20455;-57
2023/09/14 01:39:29;;;;;;;4.13;1.93;;;15.90;99.90;;;;;;5068119;28;20494;-59
2023/09/14 01:41:57;;;;;;;3.00;2.27;;;15.80;99.90;;;;;;5050108;28;20456;-58
2023/09/14 01:44:26;;;;;;;2.93;2.30;;;15.80;99.90;;;;;;5049329;28;20452;-56
2023/09/14 01:46:54;;;;;;;3.53;2.30;;;15.80;99.90;;;;;;5053836;28;20501;-57
2023/09/14 01:49:21;;;;;;;7.00;2.83;;;15.70;99.90;;;;;;5057786;28;20536;-57
2023/09/14 01:51:48;;;;;;;5.47;2.70;;;15.60;99.90;;;;;;5058393;28;20634;-58
2023/09/14 01:54:15;;;;;;;3.10;2.27;;;15.60;99.90;;;;;;5066523;28;20471;-61
2023/09/14 01:56:42;;;;;;;4.23;2.07;;;15.60;99.90;;;;;;5068226;28;20471;-59
2023/09/14 01:59:09;;;;;;;5.63;2.10;;;15.50;99.90;;;;;;5068976;28;20447;-58
2023/09/14 02:01:37;;;;;;;6.73;2.70;;;15.60;99.90;;;;;;5067731;28;20467;-59
2023/09/14 02:04:05;;;;;;;5.67;2.20;;;15.50;99.90;;;;;;5069060;28;20466;-58
2023/09/14 02:06:32;;;;;;;2.93;2.27;;;15.50;99.90;;;;;;5067723;28;20447;-58
2023/09/14 02:08:58;;;;;;;3.27;2.60;;;15.50;99.90;;;;;;5068256;28;20443;-58
2023/09/14 02:11:25;;;;;;;8.23;3.17;;;15.40;99.90;;;;;;5055315;28;20533;-60
2023/09/14 02:13:52;;;;;;;4.37;2.50;;;15.40;99.90;;;;;;5034605;28;20551;-60
2023/09/14 02:16:19;;;;;;;5.93;3.77;;;15.40;99.90;;;;;;5038569;28;20542;-60
2023/09/14 02:18:47;;;;;;;4.23;3.47;;;15.30;99.90;;;;;;5055266;28;20558;-59
2023/09/14 02:21:16;;;;;;;6.93;2.60;;;15.30;99.90;;;;;;5057402;28;20459;-59
2023/09/14 02:23:43;;;;;;;12.10;3.07;;;15.30;99.90;;;;;;5060476;28;20494;-59
2023/09/14 02:26:10;;;;;;;5.77;3.20;;;15.20;99.90;;;;;;5060287;28;20455;-59
2023/09/14 02:28:37;;;;;;;2.90;2.50;;;15.10;99.90;;;;;;5035396;28;20838;-58
2023/09/14 02:31:07;;;;;;;6.80;2.50;;;15.10;99.90;;;;;;5035661;28;20440;-56
2023/09/14 02:33:34;;;;;;;4.17;3.43;;;15.10;99.90;;;;;;5055962;28;20458;-59
2023/09/14 02:36:02;;;;;;;4.43;2.50;;;15.10;99.90;;;;;;5054283;28;20478;-59
2023/09/14 02:38:29;;;;;;;3.70;2.47;;;15.00;99.90;;;;;;5054197;28;20840;-59
2023/09/14 02:40:59;;;;;;;4.17;2.70;;;15.00;99.90;;;;;;5054242;28;21026;-58
2023/09/14 02:43:26;;;;;;;3.17;2.50;;;14.90;99.90;;;;;;5056229;28;20466;-59
2023/09/14 02:45:53;;;;;;;7.50;2.63;;;14.60;99.90;;;;;;5054317;28;20501;-59
2023/09/14 02:48:20;;;;;;;6.40;2.40;;;14.80;99.90;;;;;;5054396;28;20515;-57
2023/09/14 02:50:47;;;;;;;5.13;2.80;;;14.90;99.90;;;;;;5055363;28;20526;-58
2023/09/14 02:53:15;;;;;;;6.53;2.43;;;14.80;99.90;;;;;;5055917;28;20549;-58
2023/09/14 02:55:42;;;;;;;3.00;2.13;;;14.80;99.90;;;;;;5060515;28;20782;-59
2023/09/14 02:58:09;;;;;;;3.43;3.10;;;14.80;99.90;;;;;;5063826;28;20471;-59
2023/09/14 03:00:38;;;;;;;2.77;2.00;;;14.70;99.90;;;;;;5070131;28;20443;-59
2023/09/14 03:03:05;;;;;;;5.83;2.70;;;14.70;99.90;;;;;;5069909;28;20471;-59
2023/09/14 03:05:32;;;;;;;4.47;2.63;;;14.70;99.90;;;;;;5054818;28;20431;-60
2023/09/14 03:07:59;;;;;;;10.33;3.50;;;14.60;99.90;;;;;;5054476;28;20478;-58
2023/09/14 03:10:27;;;;;;;3.00;1.80;;;14.60;99.90;;;;;;5054825;28;20447;-59
2023/09/14 03:12:54;;;;;;;7.00;3.07;;;14.60;99.90;;;;;;5055493;28;20483;-57
2023/09/14 03:15:21;;;;;;;4.63;2.40;;;14.50;99.90;;;;;;5057522;28;20554;-57
2023/09/14 03:17:48;;;;;;;3.00;2.23;;;14.50;99.90;;;;;;5060888;28;20459;-57
2023/09/14 03:20:15;;;;;;;3.30;1.87;;;14.50;99.90;;;;;;5060810;28;20503;-59
2023/09/14 03:22:42;;;;;;;2.87;2.20;;;14.50;99.90;;;;;;5059322;28;20941;-58
2023/09/14 03:25:09;;;;;;;6.20;2.90;;;14.50;99.90;;;;;;5056942;28;20447;-56
2023/09/14 03:27:38;;;;;;;10.10;3.20;;;14.50;99.90;;;;;;5059626;28;20920;-58
2023/09/14 03:30:06;;;;;;;4.40;2.60;;;14.40;99.90;;;;;;5075312;28;20491;-51
2023/09/14 03:32:33;;;;;;;4.60;3.00;;;14.40;99.90;;;;;;5065676;28;20467;-59
2023/09/14 03:35:03;;;;;;;2.73;1.90;;;14.30;99.90;;;;;;5053946;28;20505;-58
2023/09/14 03:37:30;;;;;;;6.13;2.87;;;14.30;99.90;;;;;;5053745;28;20467;-60
2023/09/14 03:39:57;;;;;;;6.63;3.33;;;14.30;99.90;;;;;;5055168;28;20503;-60
2023/09/14 03:42:27;;;;;;;3.70;2.50;;;14.30;99.90;;;;;;5059987;28;20527;-59
2023/09/14 03:44:55;;;;;;;3.00;2.37;;;14.30;99.90;;;;;;5070422;28;20911;-60
2023/09/14 03:47:22;;;;;;;4.43;2.27;;;14.20;99.90;;;;;;5074817;28;20474;-58
2023/09/14 03:49:49;;;;;;;3.17;2.10;;;14.30;99.90;;;;;;5069969;28;20451;-57
2023/09/14 03:52:16;;;;;;;7.67;3.20;;;14.30;99.90;;;;;;5070048;28;20478;-60
2023/09/14 03:54:43;;;;;;;4.60;2.50;;;14.20;99.90;;;;;;5070871;28;20493;-59
2023/09/14 03:57:14;;;;;;;4.40;2.40;;;14.20;99.90;;;;;;5074608;28;20848;-58
2023/09/14 03:59:41;;;;;;;5.97;2.10;;;14.20;99.90;;;;;;5076571;28;20496;-58
2023/09/14 04:02:10;;;;;;;6.30;2.60;;;14.10;99.90;;;;;;5058742;28;20509;-58
2023/09/14 04:04:40;;;;;;;2.97;2.37;;;14.10;99.90;;;;;;5057304;28;20467;-58
2023/09/14 04:07:08;;;;;;;4.50;2.23;;;14.00;99.90;;;;;;5057038;28;20554;-59
2023/09/14 04:09:35;;;;;;;3.70;2.80;;;14.00;99.90;;;;;;5058038;28;20605;-58
2023/09/14 04:12:02;;;;;;;2.83;2.43;;;13.90;99.90;;;;;;5068548;28;20479;-59
2023/09/14 04:14:29;;;;;;;4.50;2.83;;;14.00;99.90;;;;;;5074004;28;20455;-58
2023/09/14 04:16:59;;;;;;;6.67;2.43;;;13.90;99.90;;;;;;5058675;28;20439;-58
2023/09/14 04:19:28;;;;;;;5.77;2.43;;;13.90;99.90;;;;;;5057241;28;20424;-59
2023/09/14 04:21:56;;;;;;;4.40;2.90;;;13.90;99.90;;;;;;5056726;28;21007;-59
2023/09/14 04:24:23;;;;;;;8.70;3.30;;;13.80;99.90;;;;;;5058482;28;20502;-59
2023/09/14 04:26:50;;;;;;;8.30;2.77;;;13.80;99.90;;;;;;5063373;28;20514;-59
2023/09/14 04:29:17;;;;;;;3.53;2.03;;;13.80;99.90;;;;;;5064008;28;20448;-59
2023/09/14 04:31:43;;;;;;;5.00;2.40;;;13.80;99.90;;;;;;5063679;28;20975;-59
2023/09/14 04:34:10;;;;;;;6.67;3.23;;;13.80;99.90;;;;;;5064537;28;20466;-59
2023/09/14 04:36:39;;;;;;;6.10;2.70;;;13.80;99.90;;;;;;5060071;28;20466;-58
2023/09/14 04:39:06;;;;;;;4.80;2.70;;;13.80;99.90;;;;;;5044413;28;20507;-56
2023/09/14 04:41:33;;;;;;;4.30;3.00;;;13.90;99.90;;;;;;5039347;28;20478;-58
2023/09/14 04:44:00;;;;;;;6.10;2.57;;;13.90;99.90;;;;;;5039524;28;20472;-60
2023/09/14 04:46:27;;;;;;;10.90;3.60;;;13.80;99.90;;;;;;5044545;28;20464;-59
2023/09/14 04:48:55;;;;;;;3.93;3.23;;;13.80;99.90;;;;;;5044605;28;20535;-58
2023/09/14 04:51:23;;;;;;;5.67;2.67;;;13.80;99.90;;;;;;5044068;28;20447;-58
2023/09/14 04:53:51;;;;;;;5.90;2.80;;;13.80;99.90;;;;;;5050333;28;20486;-53
2023/09/14 04:56:18;;;;;;;4.60;3.20;;;13.80;99.90;;;;;;5052631;28;20491;-58
2023/09/14 04:58:45;;;;;;;13.47;6.33;;;13.80;99.90;;;;;;5068723;28;20451;-59
2023/09/14 05:01:12;;;;;;;12.80;6.90;;;13.80;99.90;;;;;;5073008;28;20455;-59
2023/09/14 05:03:40;;;;;;;6.03;3.40;;;13.80;99.90;;;;;;5072681;28;20481;-59
2023/09/14 05:06:07;;;;;;;4.77;2.40;;;13.90;99.90;;;;;;5073298;28;20459;-59
2023/09/14 05:08:34;;;;;;;5.40;3.67;;;13.90;99.90;;;;;;5073010;28;20465;-59
2023/09/14 05:11:03;;;;;;;7.03;3.80;;;13.90;99.90;;;;;;5073343;28;20592;-56
2023/09/14 05:13:30;;;;;;;7.70;4.50;;;13.90;99.90;;;;;;5056120;28;20495;-59
2023/09/14 05:15:57;;;;;;;6.60;5.00;;;13.90;99.90;;;;;;5055878;28;21018;-59
2023/09/14 05:18:24;;;;;;;4.60;2.53;;;13.90;99.90;;;;;;5055695;28;20462;-58
2023/09/14 05:20:51;;;;;;;8.07;3.63;;;13.90;99.90;;;;;;5055840;28;20483;-58
2023/09/14 05:23:18;;;;;;;5.50;3.67;;;13.90;99.90;;;;;;5060171;28;20460;-59
2023/09/14 05:25:46;;;;;;;6.83;2.77;;;13.90;99.90;;;;;;5056700;28;20514;-57
2023/09/14 05:28:14;;;;;;;5.13;3.00;;;13.90;99.90;;;;;;5055263;28;20446;-60
2023/09/14 05:30:42;;;;;;;7.30;3.10;;;13.90;99.90;;;;;;5058729;28;20450;-58
2023/09/14 05:33:09;;;;;;;6.60;2.60;;;13.90;99.90;;;;;;5069622;28;20490;-57
2023/09/14 05:35:36;;;;;;;3.50;2.60;;;13.90;99.90;;;;;;5066359;28;20447;-57
2023/09/14 05:38:04;;;;;;;3.53;3.03;;;13.90;99.90;;;;;;5062336;28;20482;-57
2023/09/14 05:40:32;;;;;;;4.20;3.00;;;13.90;99.90;;;;;;5073744;28;20489;-57
2023/09/14 05:42:59;;;;;;;9.30;3.27;;;13.90;99.90;;;;;;5076876;28;20435;-55
2023/09/14 05:45:29;;;;;;;6.27;3.30;;;14.00;99.90;;;;;;5075976;28;20467;-53
2023/09/14 05:47:56;;;;;;;7.53;3.40;;;14.00;99.90;;;;;;5074373;28;20479;-57
2023/09/14 05:50:23;;;;;;;7.13;4.20;;;14.10;99.90;;;;;;5076104;28;20451;-55
2023/09/14 05:52:51;;;;;;;6.63;3.33;;;14.20;99.90;;;;;;5076473;28;20490;-57
2023/09/14 05:55:18;;;;;;;10.33;3.33;;;14.20;99.90;;;;;;5075456;28;20456;-58
2023/09/14 05:57:44;;;;;;;6.27;2.90;;;14.20;99.90;;;;;;5072615;28;20448;-59
2023/09/14 06:00:13;;;;;;;4.50;3.33;;;14.30;99.90;;;;;;5071513;28;20451;-58
2023/09/14 06:02:42;;;;;;;3.20;2.67;;;14.40;99.90;;;;;;5070916;28;20467;-57
2023/09/14 06:05:12;;;;;;;4.00;3.13;;;14.50;99.90;;;;;;5072518;28;20431;-59
2023/09/14 06:07:40;;;;;;;3.33;2.13;;;14.50;99.90;;;;;;5071860;28;20522;-58
2023/09/14 06:10:08;;;;;;;4.10;2.83;;;14.60;99.90;;;;;;5071629;28;20939;-58
2023/09/14 06:12:35;;;;;;;5.00;2.60;;;14.60;99.90;;;;;;5069746;28;20506;-58
2023/09/14 06:15:02;;;;;;;7.20;3.30;;;14.60;99.90;;;;;;5072094;28;20435;-58
2023/09/14 06:17:29;;;;;;;5.70;2.60;;;14.70;99.90;;;;;;5071399;28;20443;-56
2023/09/14 06:19:58;;;;;;;9.53;3.80;;;14.70;99.90;;;;;;5071420;28;20475;-59
2023/09/14 06:22:24;;;;;;;6.00;3.17;;;14.70;99.90;;;;;;5066210;28;20462;-59
2023/09/14 06:24:51;;;;;;;8.00;3.70;;;14.70;99.90;;;;;;5071300;28;20451;-59
2023/09/14 06:27:18;;;;;;;4.87;3.27;;;14.80;99.90;;;;;;5071576;28;20443;-58
2023/09/14 06:29:45;;;;;;;12.17;2.77;;;14.80;99.90;;;;;;5071194;28;20497;-58
2023/09/14 06:32:12;;;;;;;5.00;2.57;;;14.80;99.90;;;;;;5061717;28;20479;-57
2023/09/14 06:34:39;;;;;;;4.80;3.60;;;14.70;99.90;;;;;;5049574;28;20440;-58
2023/09/14 06:37:07;;;;;;;4.13;3.27;;;14.80;99.90;;;;;;5055195;28;20509;-59
2023/09/14 06:39:34;;;;;;;3.60;2.83;;;14.80;99.90;;;;;;5071092;28;20439;-57
2023/09/14 06:42:01;;;;;;;3.60;2.77;;;14.90;99.90;;;;;;5069774;28;20502;-58
2023/09/14 06:44:28;;;;;;;4.80;2.93;;;14.90;99.90;;;;;;5069355;28;20541;-59
2023/09/14 06:46:54;;;;;;;6.20;3.80;;;15.00;99.90;;;;;;5069340;28;20471;-59
2023/09/14 06:49:20;;;;;;;10.60;3.53;;;15.10;99.90;;;;;;5069708;28;20439;-58
2023/09/14 06:51:49;;;;;;;7.07;2.73;;;15.20;99.90;;;;;;5067981;28;20450;-57
2023/09/14 06:54:17;;;;;;;10.70;4.20;;;15.30;99.90;;;;;;5063023;28;20483;-59
2023/09/14 06:56:44;;;;;;;6.30;3.03;;;15.40;99.90;;;;;;5056048;28;20440;-58
2023/09/14 06:59:11;;;;;;;4.13;2.30;;;15.40;99.90;;;;;;5065338;28;20493;-59
2023/09/14 07:01:38;;;;;;;4.03;2.50;;;15.50;99.90;;;;;;5069510;28;20454;-58
2023/09/14 07:04:05;;;;;;;5.90;3.30;;;15.60;99.90;;;;;;5069054;28;20527;-58
2023/09/14 07:06:33;;;;;;;5.53;3.40;;;15.70;99.90;;;;;;5069146;28;20475;-58
2023/09/14 07:09:00;;;;;;;12.00;5.23;;;15.70;99.90;;;;;;5069032;28;20486;-56
2023/09/14 07:11:28;;;;;;;6.50;3.40;;;15.80;99.90;;;;;;5069188;28;20455;-57
2023/09/14 07:13:55;;;;;;;7.50;3.30;;;15.80;99.90;;;;;;5069990;28;20507;-58
2023/09/14 07:16:23;;;;;;;3.87;2.77;;;15.80;99.90;;;;;;5052279;28;20463;-58
2023/09/14 07:18:50;;;;;;;3.50;2.80;;;15.80;99.90;;;;;;5049087;28;20449;-56
2023/09/14 07:21:17;;;;;;;5.93;2.80;;;15.90;99.90;;;;;;5053049;28;20463;-58
2023/09/14 07:23:43;;;;;;;3.97;2.57;;;16.00;99.90;;;;;;5068153;28;20458;-57
2023/09/14 07:26:10;;;;;;;4.57;2.40;;;16.00;99.90;;;;;;5067611;28;20475;-57
2023/09/14 07:28:38;;;;;;;2.53;1.90;;;16.10;99.90;;;;;;5046978;28;20468;-58
2023/09/14 07:31:06;;;;;;;5.70;2.47;;;16.20;99.90;;;;;;5050669;28;20958;-58
2023/09/14 07:33:33;;;;;;;5.20;2.17;;;16.30;99.90;;;;;;5069162;28;20478;-58
2023/09/14 07:36:03;;;;;;;3.50;2.13;;;16.40;99.90;;;;;;5070954;28;20526;-58
2023/09/14 07:38:30;;;;;;;3.23;1.97;;;16.50;99.90;;;;;;5071790;28;20528;-59
2023/09/14 07:40:58;;;;;;;3.20;2.20;;;16.50;99.90;;;;;;5071876;28;20482;-57
2023/09/14 07:43:25;;;;;;;2.97;1.73;;;16.70;99.90;;;;;;5058885;28;20500;-58
2023/09/14 07:45:55;;;;;;;6.60;1.97;;;16.60;99.90;;;;;;5044901;28;20530;-59
2023/09/14 07:48:22;;;;;;;11.53;1.97;;;16.70;99.90;;;;;;5038768;28;20549;-58
2023/09/14 07:50:49;;;;;;;3.40;2.07;;;16.80;99.90;;;;;;5041095;28;20881;-60
2023/09/14 07:53:16;;;;;;;5.63;1.90;;;16.90;99.90;;;;;;5041066;28;20519;-59
2023/09/14 07:55:42;;;;;;;3.90;2.60;;;17.00;99.90;;;;;;5041621;28;20475;-59
2023/09/14 07:58:10;;;;;;;3.33;2.20;;;17.10;99.90;;;;;;5042006;28;20518;-59
2023/09/14 08:00:37;;;;;;;4.93;2.03;;;17.20;99.90;;;;;;5063685;28;20554;-59
2023/09/14 08:03:05;;;;;;;4.10;2.17;;;17.20;99.90;;;;;;5066532;28;20459;-59
2023/09/14 08:05:32;;;;;;;8.17;1.60;;;17.20;99.90;;;;;;5065556;28;20497;-60
2023/09/14 08:07:59;;;;;;;2.70;1.80;;;17.30;99.90;;;;;;5064287;28;20455;-60
2023/09/14 08:10:26;;;;;;;5.63;2.00;;;17.40;99.90;;;;;;5064756;28;20435;-60
2023/09/14 08:12:53;;;;;;;7.80;1.83;;;17.70;99.90;;;;;;5064539;28;20428;-59
2023/09/14 08:15:20;;;;;;;4.90;2.60;;;18.40;99.90;;;;;;5063987;28;20531;-61
2023/09/14 08:17:47;;;;;;;3.30;1.70;;;19.70;99.90;;;;;;5061788;28;20449;-60
2023/09/14 08:20:16;;;;;;;3.70;1.93;;;21.70;99.90;;;;;;5061354;28;20438;-61
2023/09/14 08:22:43;;;;;;;4.20;2.20;;;23.40;99.90;;;;;;5060962;28;20565;-61
2023/09/14 08:25:11;;;;;;;4.57;2.13;;;24.70;99.90;;;;;;5056754;28;20489;-59
2023/09/14 08:27:39;;;;;;;2.93;2.10;;;25.60;99.90;;;;;;5056153;28;20486;-59
2023/09/14 08:30:08;;;;;;;3.60;1.93;;;26.60;94.50;;;;;;5037036;28;20446;-61
2023/09/14 08:32:35;;;;;;;4.10;1.53;;;27.50;91.80;;;;;;5037411;28;20443;-60
2023/09/14 08:35:23;;;;;;;2.87;1.73;;;28.60;82.80;;;;;;5039354;28;20438;-60
2023/09/14 08:37:50;;;;;;;2.40;1.67;;;29.40;74.00;;;;;;5056421;28;20487;-59
2023/09/14 08:40:18;;;;;;;2.47;1.70;;;29.20;70.50;;;;;;5056353;28;20779;-59
2023/09/14 08:42:49;;;;;;;3.87;1.77;;;29.20;71.20;;;;;;5056254;28;20451;-63
2023/09/14 08:45:20;;;;;;;4.00;2.00;;;29.40;69.40;;;;;;5056057;28;20491;-61
2023/09/14 08:47:48;;;;;;;4.83;1.90;;;29.80;66.30;;;;;;5056570;28;20816;-61
2023/09/14 08:50:18;;;;;;;2.57;1.57;;;30.40;65.20;;;;;;5046728;28;20537;-60
2023/09/14 08:52:47;;;;;;;3.73;1.60;;;30.70;62.50;;;;;;5036252;28;20532;-62
2023/09/14 08:55:16;;;;;;;2.67;1.67;;;30.60;61.80;;;;;;5036656;28;20530;-60
2023/09/14 08:57:45;;;;;;;1.60;1.10;;;30.80;60.50;;;;;;5036170;28;20490;-61
2023/09/14 09:00:15;;;;;;;2.53;1.53;;;31.00;59.50;;;;;;5036007;28;20495;-60
2023/09/14 09:02:43;;;;;;;3.73;1.50;;;30.90;58.70;;;;;;5035761;28;20448;-60
2023/09/14 09:05:12;;;;;;;5.60;2.67;;;30.70;59.40;;;;;;5035959;28;20511;-59
2023/09/14 09:07:40;;;;;;;2.20;1.63;;;30.30;59.30;;;;;;5036219;28;20510;-63
2023/09/14 09:10:11;;;;;;;2.90;1.63;;;30.10;59.20;;;;;;5061691;28;20431;-54
2023/09/14 09:12:38;;;;;;;6.80;1.80;;;29.70;58.90;;;;;;5077523;28;20494;-63
2023/09/14 09:15:07;;;;;;;3.00;1.60;;;29.60;59.60;;;;;;5078248;28;20436;-59
2023/09/14 09:17:41;;;;;;;2.93;1.50;;;29.50;60.80;;;;;;5077217;28;20499;-57
2023/09/14 09:20:16;;;;;;;3.63;1.93;;;28.90;61.30;;;;;;5078205;28;20435;-54
2023/09/14 09:22:44;;;;;;;2.20;1.53;;;27.90;63.10;;;;;;5045019;28;20482;-61
2023/09/14 09:25:13;;;;;;;6.53;3.73;;;27.40;65.40;;;;;;5035785;28;20971;-59
2023/09/14 09:27:40;;;;;;;2.90;2.03;;;27.40;66.10;;;;;;5036138;28;20486;-63
2023/09/14 09:30:09;;;;;;;2.40;1.70;;;27.30;65.90;;;;;;5056055;28;20439;-61
2023/09/14 09:32:38;;;;;;;2.90;1.60;;;27.50;65.90;;;;;;5055745;28;20528;-60
2023/09/14 09:35:19;;;;;;;1.70;1.30;;;27.70;66.10;;;;;;5055527;28;20435;-62
2023/09/14 09:37:47;;;;;;;2.67;1.50;;;27.90;63.60;;;;;;5055516;28;20560;-62
2023/09/14 09:40:16;;;;;;;5.90;1.73;;;27.30;63.30;;;;;;5059395;28;20475;-57
2023/09/14 09:42:44;;;;;;;2.13;1.90;;;26.60;65.30;;;;;;5060369;28;20467;-60
2023/09/14 09:45:11;;;;;;;3.17;1.80;;;26.80;66.40;;;;;;5057359;28;20479;-58
2023/09/14 09:47:40;;;;;;;4.17;2.33;;;27.20;67.90;;;;;;5056023;28;20564;-60
2023/09/14 09:50:08;;;;;;;2.43;1.70;;;27.20;65.60;;;;;;5055522;28;20448;-64
2023/09/14 09:52:35;;;;;;;4.90;2.17;;;26.20;67.90;;;;;;5039579;28;20881;-62
2023/09/14 09:55:04;;;;;;;3.83;1.60;;;25.30;69.50;;;;;;5035648;28;20490;-61
2023/09/14 09:57:36;;;;;;;2.27;1.77;;;25.00;72.00;;;;;;5047106;28;20974;-59
2023/09/14 10:00:12;;;;;;;3.47;2.00;;;24.90;72.50;;;;;;5072452;28;20424;-59
2023/09/14 10:02:40;;;;;;;3.70;2.00;;;25.00;75.10;;;;;;5070826;28;20479;-60
2023/09/14 10:05:08;;;;;;;2.53;1.70;;;25.60;73.40;;;;;;5049664;28;20752;-63
2023/09/14 10:07:39;;;;;;;2.47;1.60;;;25.80;71.20;;;;;;5035091;28;20469;-60
2023/09/14 10:10:08;;;;;;;2.20;1.50;;;25.80;70.10;;;;;;5035890;28;20936;-60
2023/09/14 10:12:39;;;;;;;2.50;1.63;;;25.70;71.00;;;;;;5035356;28;20519;-59
2023/09/14 10:15:07;;;;;;;2.40;1.60;;;25.60;71.20;;;;;;5034985;28;20526;-59
2023/09/14 10:17:35;;;;;;;3.33;1.50;;;25.50;70.50;;;;;;5035157;28;20747;-61
2023/09/14 10:20:05;;;;;;;1.70;1.53;;;25.10;71.80;;;;;;5035042;28;20521;-61
2023/09/14 10:22:33;;;;;;;2.27;1.57;;;24.70;74.80;;;;;;5035567;28;20494;-62
2023/09/14 10:25:00;;;;;;;3.43;1.70;;;24.90;75.60;;;;;;5040142;28;20487;-60
2023/09/14 10:27:29;;;;;;;3.97;2.20;;;25.30;79.00;;;;;;5054873;28;20453;-62
2023/09/14 10:29:58;;;;;;;2.80;2.10;;;25.60;74.70;;;;;;5054489;28;20487;-59
2023/09/14 10:32:26;;;;;;;3.87;2.33;;;26.00;74.30;;;;;;5055123;28;20763;-60
2023/09/14 10:34:56;;;;;;;2.63;1.83;;;26.30;74.20;;;;;;5078230;28;20431;-54
2023/09/14 10:37:24;;;;;;;1.90;1.50;;;26.50;71.70;;;;;;5078072;28;20412;-48
2023/09/14 10:39:53;;;;;;;2.23;1.60;;;26.60;67.30;;;;;;5078075;28;20482;-55
2023/09/14 10:42:21;;;;;;;4.50;1.43;;;26.60;69.70;;;;;;5077608;28;20450;-56
2023/09/14 10:44:49;;;;;;;1.80;1.43;;;26.20;68.90;;;;;;5078157;28;20478;-52
2023/09/14 10:47:24;;;;;;;3.00;2.00;;;25.60;69.70;;;;;;5078135;28;20426;-55
2023/09/14 10:49:51;;;;;;;2.83;1.80;;;25.30;74.20;;;;;;5077646;28;20446;-52
2023/09/14 10:52:24;;;;;;;1.60;1.47;;;25.10;71.10;;;;;;5078234;28;20408;-53
2023/09/14 10:54:51;;;;;;;3.10;2.10;;;25.00;74.20;;;;;;5068021;28;20452;-54
2023/09/14 10:57:23;;;;;;;2.60;1.50;;;25.00;75.90;;;;;;5058256;28;20468;-58
2023/09/14 10:59:51;;;;;;;2.70;2.07;;;25.10;73.90;;;;;;5057892;28;20487;-51
2023/09/14 11:02:57;;;;;;;2.40;1.83;;;25.00;77.60;;;;;;5066313;28;20515;-54
2023/09/14 11:05:26;;;;;;;2.03;1.60;;;25.00;76.20;;;;;;5081996;28;20458;-53
2023/09/14 11:08:00;;;;;;;2.37;1.60;;;25.00;72.90;;;;;;5081914;28;20430;-55
2023/09/14 11:10:29;;;;;;;4.13;1.93;;;24.70;75.70;;;;;;5082053;28;20419;-55
2023/09/14 11:13:25;;;;;;;2.80;1.83;;;24.70;73.50;;;;;;5077800;28;20432;-54
2023/09/14 11:15:57;;;;;;;4.17;1.90;;;24.60;72.10;;;;;;5062007;28;20454;-56
2023/09/14 11:18:55;;;;;;;4.43;1.80;;;24.30;72.90;;;;;;5068219;28;20435;-55
2023/09/14 11:21:43;;;;;;;4.03;2.03;;;24.20;74.90;;;;;;5081877;28;20454;-53
2023/09/14 11:24:11;;;;;;;3.13;1.83;;;24.00;78.60;;;;;;5081504;28;20485;-54
2023/09/14 11:26:45;;;;;;;2.57;1.43;;;24.00;77.10;;;;;;5081764;28;20441;-56
2023/09/14 11:29:13;;;;;;;4.10;2.10;;;23.90;76.80;;;;;;5081424;28;20513;-56
2023/09/14 11:31:42;;;;;;;4.23;1.90;;;23.60;76.80;;;;;;5070538;28;20424;-57
2023/09/14 11:34:14;;;;;;;3.20;2.10;;;23.50;78.20;;;;;;5061743;28;20444;-55
2023/09/14 11:36:42;;;;;;;2.20;1.67;;;23.40;80.10;;;;;;5061591;28;20436;-55
2023/09/14 11:39:09;;;;;;;3.43;1.80;;;23.30;79.80;;;;;;5061500;28;20432;-57
2023/09/14 11:41:38;;;;;;;3.73;2.07;;;23.20;79.10;;;;;;5061403;28;20440;-56
2023/09/14 11:44:06;;;;;;;3.17;1.93;;;23.30;79.20;;;;;;5076071;28;20431;-52
2023/09/14 11:46:35;;;;;;;2.23;1.80;;;23.10;79.70;;;;;;5081504;28;20411;-53
2023/09/14 11:49:03;;;;;;;2.00;1.63;;;23.00;80.60;;;;;;5081237;28;20519;-50
2023/09/14 11:51:32;;;;;;;3.30;2.00;;;22.90;80.50;;;;;;5081289;28;20419;-52
2023/09/14 11:54:00;;;;;;;4.93;2.30;;;22.90;81.80;;;;;;5076677;28;20436;-52
2023/09/14 11:56:29;;;;;;;3.10;1.87;;;22.80;81.90;;;;;;5061375;28;20400;-50
2023/09/14 11:59:00;;;;;;;1.77;1.40;;;22.50;84.00;;;;;;5061174;28;20404;-53
2023/09/14 12:01:27;;;;;;;5.00;1.90;;;22.30;85.40;;;;;;5061402;28;20443;-54
2023/09/14 12:03:55;;;;;;;3.77;1.87;;;22.10;87.90;;;;;;5076454;28;20444;-53
2023/09/14 12:06:22;;;;;;;2.40;1.87;;;22.10;90.60;;;;;;5081172;28;20420;-51
2023/09/14 12:08:51;;;;;;;4.90;1.90;;;22.10;90.40;;;;;;5081075;28;20487;-50
2023/09/14 12:11:19;;;;;;;2.20;1.80;;;22.10;91.10;;;;;;5081069;28;20439;-55
2023/09/14 12:13:53;;;;;;;2.10;1.57;;;22.10;91.30;;;;;;5080694;28;20481;-51
2023/09/14 12:16:21;;;;;;;2.47;2.17;;;22.10;90.80;;;;;;5080064;28;20445;-54
2023/09/14 12:18:49;;;;;;;4.93;2.40;;;22.10;90.10;;;;;;5080942;28;20582;-54
2023/09/14 12:21:17;;;;;;;2.80;1.80;;;22.00;89.40;;;;;;5080946;28;20411;-54
2023/09/14 12:23:47;;;;;;;3.27;1.70;;;22.00;90.00;;;;;;5080540;28;20495;-53
2023/09/14 12:26:20;;;;;;;2.67;1.93;;;22.00;90.10;;;;;;5080746;28;20471;-55
2023/09/14 12:28:50;;;;;;;3.47;2.27;;;22.10;90.10;;;;;;5080826;28;20475;-54
2023/09/14 12:31:18;;;;;;;4.40;2.70;;;22.30;87.30;;;;;;5080447;28;20463;-54
2023/09/14 12:33:46;;;;;;;5.33;2.90;;;22.30;87.10;;;;;;5080567;28;20411;-54
2023/09/14 12:36:13;;;;;;;7.27;3.80;;;22.40;88.40;;;;;;5080410;28;20443;-56
2023/09/14 12:38:40;;;;;;;4.67;2.50;;;22.40;87.40;;;;;;5080617;28;20407;-55
2023/09/14 12:41:07;;;;;;;3.53;2.00;;;22.40;85.10;;;;;;5080482;28;20443;-56
2023/09/14 12:43:37;;;;;;;3.43;2.30;;;22.40;83.50;;;;;;5080587;28;20487;-55
2023/09/14 12:46:04;;;;;;;2.73;1.90;;;22.50;86.30;;;;;;5063221;28;20474;-56
2023/09/14 12:48:32;;;;;;;4.03;2.40;;;22.50;84.40;;;;;;5060294;28;20439;-52
2023/09/14 12:51:05;;;;;;;3.87;1.70;;;22.60;84.60;;;;;;5060320;28;20444;-51
2023/09/14 12:53:40;;;;;;;5.07;2.20;;;22.60;80.30;;;;;;5068924;28;20450;-54